Time;durP1;ratioP1;P1;durP2;ratioP2;P2;SDS_P1;SDS_P2;PMS_P1;PMS_P2;Temp;Humidity;BMP_temperature;BMP_pressure;BME280_temperature;BME280_humidity;BME280_pressure;Samples;Min_cycle;Max_cycle;Signal;HPM_P1;HPM_P2
2023/03/07 00:00:50;;;;;;;24.83;10.90;;;;;;;;;;4964574;28;20466;-67
2023/03/07 00:03:19;;;;;;;26.43;10.47;;;;;;;;;;4963721;28;20535;-67
2023/03/07 00:05:45;;;;;;;24.30;9.40;;;;;;;;;;4962246;28;20464;-67
2023/03/07 00:08:12;;;;;;;23.03;8.83;;;;;;;;;;4961585;28;20595;-67
2023/03/07 00:10:59;;;;;;;20.27;9.60;;;;;;;;;;4968140;28;20534;-67
2023/03/07 00:13:27;;;;;;;17.13;8.47;;;;;;;;;;4965258;28;21010;-67
2023/03/07 00:16:15;;;;;;;19.50;8.47;;;;;;;;;;4968010;28;20918;-67
2023/03/07 00:18:42;;;;;;;17.63;7.80;;;;;;;;;;4961304;28;20464;-67
2023/03/07 00:21:10;;;;;;;18.77;8.80;;;;;;;;;;4964624;28;20470;-67
2023/03/07 00:23:37;;;;;;;15.07;8.33;;;;;;;;;;4967316;28;21360;-67
2023/03/07 00:26:05;;;;;;;14.53;8.30;;;;;;;;;;4966313;28;20475;-67
2023/03/07 00:28:31;;;;;;;16.40;7.77;;;;;;;;;;4953333;28;20471;-67
2023/03/07 00:30:58;;;;;;;17.00;9.27;;;;;;;;;;4966045;28;20471;-67
2023/03/07 00:33:25;;;;;;;19.50;8.33;;;;;;;;;;4953683;28;20463;-67
2023/03/07 00:36:11;;;;;;;18.57;8.70;;;;;;;;;;4967738;28;20882;-67
2023/03/07 00:38:37;;;;;;;19.13;8.10;;;;;;;;;;4965557;28;20475;-67
2023/03/07 00:41:04;;;;;;;18.07;8.53;;;;;;;;;;4966184;28;20487;-67
2023/03/07 00:43:31;;;;;;;18.90;8.07;;;;;;;;;;4983819;28;20963;-67
2023/03/07 00:45:58;;;;;;;14.20;7.60;;;;;;;;;;4986880;28;20466;-67
2023/03/07 00:48:24;;;;;;;15.70;7.90;;;;;;;;;;4967405;28;20768;-67
2023/03/07 00:50:51;;;;;;;15.33;7.83;;;;;;;;;;4971855;28;20503;-67
2023/03/07 00:53:18;;;;;;;18.97;8.93;;;;;;;;;;4984939;28;20459;-67
2023/03/07 00:56:04;;;;;;;16.43;7.90;;;;;;;;;;4985938;28;20477;-67
2023/03/07 00:58:31;;;;;;;19.30;8.00;;;;;;;;;;4984440;28;20455;-67
2023/03/07 01:00:58;;;;;;;22.30;8.17;;;;;;;;;;4968660;28;20466;-67
2023/03/07 01:03:25;;;;;;;18.57;8.27;;;;;;;;;;4984672;28;20540;-67
2023/03/07 01:05:52;;;;;;;20.40;9.23;;;;;;;;;;4986729;28;20463;-67
2023/03/07 01:08:36;;;;;;;19.83;9.27;;;;;;;;;;4966723;28;20471;-67
2023/03/07 01:11:03;;;;;;;21.63;10.00;;;;;;;;;;4983365;28;20470;-67
2023/03/07 01:13:48;;;;;;;21.10;10.00;;;;;;;;;;4966880;28;20452;-67
2023/03/07 01:16:15;;;;;;;21.23;9.63;;;;;;;;;;4967064;28;21174;-67
2023/03/07 01:18:42;;;;;;;23.57;9.27;;;;;;;;;;4983333;28;20574;-67
2023/03/07 01:21:20;;;;;;;19.37;8.97;;;;;;;;;;4984904;28;20458;-67
2023/03/07 01:23:47;;;;;;;19.50;9.83;;;;;;;;;;4965924;28;20520;-67
2023/03/07 01:26:14;;;;;;;20.50;8.80;;;;;;;;;;4986373;28;20454;-67
2023/03/07 01:28:41;;;;;;;16.07;8.83;;;;;;;;;;4964763;28;20471;-67
2023/03/07 01:31:08;;;;;;;17.50;8.77;;;;;;;;;;4984058;28;20467;-67
2023/03/07 01:33:35;;;;;;;19.23;9.63;;;;;;;;;;4966713;28;20472;-67
2023/03/07 01:36:02;;;;;;;18.93;9.27;;;;;;;;;;4968395;28;23649;-67
2023/03/07 01:38:46;;;;;;;21.70;9.70;;;;;;;;;;4966396;28;20451;-67
2023/03/07 01:41:14;;;;;;;17.10;8.67;;;;;;;;;;4967969;28;22433;-67
2023/03/07 02:18:52;;;;;;;14.20;7.00;;;;;;;;;;4978547;28;20453;-67
2023/03/07 02:21:42;;;;;;;11.97;5.83;;;;;;;;;;4983659;28;20501;-67
2023/03/07 02:24:23;;;;;;;11.93;5.47;;;;;;;;;;4949856;28;20461;-67
2023/03/07 02:27:07;;;;;;;10.43;5.87;;;;;;;;;;4955076;28;20457;-67
2023/03/07 02:29:36;;;;;;;12.03;6.20;;;;;;;;;;4965194;28;20467;-67
2023/03/07 02:32:03;;;;;;;14.37;6.43;;;;;;;;;;4967074;28;20795;-67
2023/03/07 02:34:30;;;;;;;13.70;6.20;;;;;;;;;;4960697;28;20977;-67
2023/03/07 02:37:12;;;;;;;10.83;5.90;;;;;;;;;;4961834;28;20479;-67
2023/03/07 02:39:56;;;;;;;4.43;2.47;;;;;;;;;;4962732;28;20454;-67
2023/03/07 02:42:24;;;;;;;16.67;7.20;;;;;;;;;;4962509;28;20912;-67
2023/03/07 02:44:59;;;;;;;14.33;7.07;;;;;;;;;;4944835;28;20542;-67
2023/03/07 02:47:29;;;;;;;12.60;5.73;;;;;;;;;;4958716;28;20472;-67
2023/03/07 02:49:57;;;;;;;11.30;5.63;;;;;;;;;;4960569;28;20460;-67
2023/03/07 02:52:26;;;;;;;13.47;6.23;;;;;;;;;;4971730;28;20463;-67
2023/03/07 02:54:53;;;;;;;12.63;5.10;;;;;;;;;;4974812;28;20794;-67
2023/03/07 02:57:21;;;;;;;11.13;4.03;;;;;;;;;;4960765;28;20473;-67
2023/03/07 02:59:48;;;;;;;18.70;7.97;;;;;;;;;;4958682;28;20478;-67
2023/03/07 03:02:15;;;;;;;13.17;6.37;;;;;;;;;;4976670;28;20475;-67
2023/03/07 03:04:41;;;;;;;16.03;6.10;;;;;;;;;;4944225;28;20460;-67
2023/03/07 03:07:08;;;;;;;21.53;8.50;;;;;;;;;;4976449;28;20456;-67
2023/03/07 03:09:35;;;;;;;19.23;8.53;;;;;;;;;;4962399;28;20987;-67
2023/03/07 03:12:02;;;;;;;16.30;7.70;;;;;;;;;;4962240;28;20464;-67
2023/03/07 03:14:31;;;;;;;17.73;8.90;;;;;;;;;;4962071;28;20459;-67
2023/03/07 03:16:57;;;;;;;15.13;6.57;;;;;;;;;;4962452;28;20598;-67
2023/03/07 03:19:24;;;;;;;12.23;6.53;;;;;;;;;;4981130;28;21048;-67
2023/03/07 03:21:51;;;;;;;17.43;8.77;;;;;;;;;;4982670;28;20478;-67
2023/03/07 03:24:18;;;;;;;17.97;8.67;;;;;;;;;;4965701;28;20540;-67
2023/03/07 03:26:46;;;;;;;18.10;7.40;;;;;;;;;;4964670;28;20458;-67
2023/03/07 03:29:14;;;;;;;18.87;8.43;;;;;;;;;;4966609;28;20474;-67
2023/03/07 03:31:41;;;;;;;21.25;12.07;;;;;;;;;;4964225;28;20439;-67
2023/03/07 03:34:25;;;;;;;20.60;9.33;;;;;;;;;;4960530;28;20235;-67
2023/03/07 03:36:52;;;;;;;16.87;9.33;;;;;;;;;;4961503;28;20464;-67
2023/03/07 03:39:37;;;;;;;16.03;7.47;;;;;;;;;;4961814;28;20458;-67
2023/03/07 03:42:05;;;;;;;18.97;8.87;;;;;;;;;;4963060;28;20982;-67
2023/03/07 03:44:32;;;;;;;19.43;8.80;;;;;;;;;;4965122;28;20460;-67
2023/03/07 03:46:58;;;;;;;22.40;9.97;;;;;;;;;;4965279;28;20447;-67
2023/03/07 03:49:26;;;;;;;25.87;11.00;;;;;;;;;;4969484;28;20465;-67
2023/03/07 03:52:10;;;;;;;21.10;7.23;;;;;;;;;;4966337;28;20459;-67
2023/03/07 03:54:37;;;;;;;30.77;13.23;;;;;;;;;;4987845;28;20471;-67
2023/03/07 03:57:03;;;;;;;25.73;10.87;;;;;;;;;;4968473;28;20451;-67
2023/03/07 03:59:30;;;;;;;22.63;10.90;;;;;;;;;;4987566;28;20613;-67
2023/03/07 04:01:57;;;;;;;21.17;10.27;;;;;;;;;;4967903;28;20459;-67
2023/03/07 04:04:24;;;;;;;18.67;9.00;;;;;;;;;;4970117;28;20984;-68
2023/03/07 04:06:51;;;;;;;28.67;9.67;;;;;;;;;;4968028;28;20461;-67
2023/03/07 04:09:18;;;;;;;22.53;10.97;;;;;;;;;;4966254;28;20953;-66
2023/03/07 04:11:46;;;;;;;21.97;9.10;;;;;;;;;;4982214;28;21004;-68
2023/03/07 04:14:13;;;;;;;15.73;7.43;;;;;;;;;;5001170;28;20496;-67
2023/03/07 04:16:39;;;;;;;16.50;7.53;;;;;;;;;;4950349;28;20467;-66
2023/03/07 04:19:24;;;;;;;17.80;7.97;;;;;;;;;;4934666;28;20578;-66
2023/03/07 04:21:50;;;;;;;24.63;11.47;;;;;;;;;;4947672;28;20986;-67
2023/03/07 04:24:17;;;;;;;18.43;9.17;;;;;;;;;;4950485;28;20471;-68
2023/03/07 04:26:45;;;;;;;20.47;8.83;;;;;;;;;;4948622;28;20458;-68
2023/03/07 04:29:11;;;;;;;16.40;8.37;;;;;;;;;;4950004;28;20546;-67
2023/03/07 04:31:44;;;;;;;22.37;8.20;;;;;;;;;;4939184;28;20932;-67
2023/03/07 04:34:11;;;;;;;20.93;10.23;;;;;;;;;;4965980;28;20467;-67
2023/03/07 04:36:38;;;;;;;9.43;3.40;;;;;;;;;;4957533;28;20870;-66
2023/03/07 04:39:05;;;;;;;19.83;9.53;;;;;;;;;;4968143;28;20451;-64
2023/03/07 04:41:32;;;;;;;22.47;10.20;;;;;;;;;;4964749;28;20458;-67
2023/03/07 04:44:06;;;;;;;16.40;7.63;;;;;;;;;;4964768;28;21031;-65
2023/03/07 04:46:36;;;;;;;17.47;7.67;;;;;;;;;;4964210;28;20538;-65
2023/03/07 04:49:03;;;;;;;20.53;8.50;;;;;;;;;;4966165;28;20538;-66
2023/03/07 04:51:29;;;;;;;9.80;3.87;;;;;;;;;;4963927;28;21046;-65
2023/03/07 04:53:56;;;;;;;12.33;5.40;;;;;;;;;;4938455;28;20573;-66
2023/03/07 04:56:23;;;;;;;10.20;4.73;;;;;;;;;;4946845;28;20552;-64
2023/03/07 04:58:49;;;;;;;25.80;12.53;;;;;;;;;;4950652;28;20489;-64
2023/03/07 05:01:17;;;;;;;11.07;5.73;;;;;;;;;;4963892;28;20462;-64
2023/03/07 05:03:44;;;;;;;24.73;10.80;;;;;;;;;;4964295;28;21574;-65
2023/03/07 05:06:13;;;;;;;23.27;11.27;;;;;;;;;;4975594;28;20475;-65
2023/03/07 05:08:57;;;;;;;22.03;9.63;;;;;;;;;;4965285;28;20454;-66
2023/03/07 05:11:25;;;;;;;19.77;8.63;;;;;;;;;;4950590;28;20465;-64
2023/03/07 05:13:52;;;;;;;18.57;6.97;;;;;;;;;;4960451;28;20472;-65
2023/03/07 05:16:20;;;;;;;16.73;7.93;;;;;;;;;;4959915;28;20509;-65
2023/03/07 05:18:47;;;;;;;23.60;10.17;;;;;;;;;;4967438;28;21039;-64
2023/03/07 05:21:32;;;;;;;19.87;9.63;;;;;;;;;;4962661;28;20490;-65
2023/03/07 05:23:59;;;;;;;24.77;10.03;;;;;;;;;;4983663;28;20466;-66
2023/03/07 05:26:28;;;;;;;20.10;9.77;;;;;;;;;;4964695;28;20487;-65
2023/03/07 05:28:55;;;;;;;22.13;10.30;;;;;;;;;;4966776;28;21009;-66
2023/03/07 05:31:22;;;;;;;22.37;10.40;;;;;;;;;;4982278;28;20474;-64
2023/03/07 05:33:49;;;;;;;22.90;10.83;;;;;;;;;;4967835;28;20491;-65
2023/03/07 05:36:16;;;;;;;21.37;10.57;;;;;;;;;;4980141;28;20451;-64
2023/03/07 05:38:43;;;;;;;23.63;11.33;;;;;;;;;;4984728;28;20469;-67
2023/03/07 05:41:10;;;;;;;20.60;10.67;;;;;;;;;;4966657;28;20501;-64
2023/03/07 05:43:36;;;;;;;19.60;9.70;;;;;;;;;;4966649;28;20459;-67
2023/03/07 05:46:03;;;;;;;17.63;9.03;;;;;;;;;;4964762;28;20820;-67
2023/03/07 05:48:49;;;;;;;20.10;9.87;;;;;;;;;;4970781;28;20443;-67
2023/03/07 05:51:16;;;;;;;18.50;8.90;;;;;;;;;;4963071;28;20447;-65
2023/03/07 05:53:45;;;;;;;20.20;9.43;;;;;;;;;;4980622;28;20456;-63
2023/03/07 05:56:12;;;;;;;18.67;9.10;;;;;;;;;;4978641;28;20858;-64
2023/03/07 05:58:40;;;;;;;15.80;7.93;;;;;;;;;;4964384;28;20463;-65
2023/03/07 06:01:07;;;;;;;15.50;7.87;;;;;;;;;;4934096;28;20463;-68
2023/03/07 06:03:34;;;;;;;16.43;7.50;;;;;;;;;;4960168;28;20469;-66
2023/03/07 06:06:02;;;;;;;17.60;8.40;;;;;;;;;;4962024;28;20557;-68
2023/03/07 06:08:29;;;;;;;23.00;8.60;;;;;;;;;;4959114;28;20470;-68
2023/03/07 06:10:56;;;;;;;17.33;8.27;;;;;;;;;;4961703;28;20542;-67
2023/03/07 06:13:24;;;;;;;17.27;8.40;;;;;;;;;;4975001;28;20532;-66
2023/03/07 06:15:51;;;;;;;17.30;7.53;;;;;;;;;;4963312;28;20451;-67
2023/03/07 06:18:19;;;;;;;19.80;9.00;;;;;;;;;;4979395;28;20953;-66
2023/03/07 06:20:55;;;;;;;18.33;8.20;;;;;;;;;;4962274;28;20458;-68
2023/03/07 06:23:22;;;;;;;16.00;7.63;;;;;;;;;;4963060;28;20455;-67
2023/03/07 06:25:49;;;;;;;18.90;7.10;;;;;;;;;;4946251;28;20481;-69
2023/03/07 06:28:19;;;;;;;17.23;7.07;;;;;;;;;;4961616;28;20467;-66
2023/03/07 06:31:10;;;;;;;13.80;5.63;;;;;;;;;;4981089;28;20489;-67
2023/03/07 06:33:38;;;;;;;13.13;4.97;;;;;;;;;;4944653;28;20663;-66
2023/03/07 06:36:08;;;;;;;13.90;6.53;;;;;;;;;;4948302;28;20506;-66
2023/03/07 06:38:36;;;;;;;14.60;6.37;;;;;;;;;;4944704;28;20530;-66
2023/03/07 06:41:03;;;;;;;13.37;5.23;;;;;;;;;;4962180;28;22772;-67
2023/03/07 06:43:31;;;;;;;11.90;5.60;;;;;;;;;;4959700;28;20455;-66
2023/03/07 06:45:58;;;;;;;12.53;6.13;;;;;;;;;;4927524;28;20498;-65
2023/03/07 06:48:32;;;;;;;14.77;6.10;;;;;;;;;;4958137;28;20463;-66
2023/03/07 06:51:05;;;;;;;15.03;5.80;;;;;;;;;;4943557;28;20456;-69
2023/03/07 06:53:32;;;;;;;11.07;4.97;;;;;;;;;;4961015;28;20566;-66
2023/03/07 06:56:00;;;;;;;13.73;5.70;;;;;;;;;;4967007;28;20491;-66
2023/03/07 06:58:27;;;;;;;13.83;5.53;;;;;;;;;;4982796;28;20459;-65
2023/03/07 07:00:54;;;;;;;10.37;5.00;;;;;;;;;;4966619;28;20459;-65
2023/03/07 07:03:22;;;;;;;7.83;4.50;;;;;;;;;;4965239;28;20458;-66
2023/03/07 07:05:50;;;;;;;9.20;4.27;;;;;;;;;;4986183;28;20483;-65
2023/03/07 07:08:16;;;;;;;12.53;5.80;;;;;;;;;;4945259;28;20468;-66
2023/03/07 07:10:43;;;;;;;12.00;5.47;;;;;;;;;;4952725;28;20458;-66
2023/03/07 07:13:11;;;;;;;9.20;4.57;;;;;;;;;;4983878;28;20455;-65
2023/03/07 07:15:38;;;;;;;8.93;4.70;;;;;;;;;;4964667;28;20463;-66
2023/03/07 07:18:05;;;;;;;11.27;5.83;;;;;;;;;;4947926;28;20451;-65
2023/03/07 07:20:33;;;;;;;7.37;4.03;;;;;;;;;;4957286;28;20525;-66
2023/03/07 07:23:01;;;;;;;13.20;5.67;;;;;;;;;;4929575;28;20587;-66
2023/03/07 07:25:28;;;;;;;11.03;5.30;;;;;;;;;;4952673;28;20514;-67
2023/03/07 07:27:54;;;;;;;9.27;4.70;;;;;;;;;;4959641;28;20448;-66
2023/03/07 07:30:21;;;;;;;11.47;5.83;;;;;;;;;;4976116;28;20493;-67
2023/03/07 07:32:49;;;;;;;10.03;4.97;;;;;;;;;;4957876;28;20464;-65
2023/03/07 07:35:16;;;;;;;12.47;5.97;;;;;;;;;;4959291;28;21042;-65
2023/03/07 07:37:44;;;;;;;12.63;5.80;;;;;;;;;;4957995;28;20498;-65
2023/03/07 07:40:11;;;;;;;12.57;5.30;;;;;;;;;;4961940;28;23081;-65
2023/03/07 07:42:39;;;;;;;12.07;5.20;;;;;;;;;;4941476;28;20463;-65
2023/03/07 07:45:24;;;;;;;13.50;5.57;;;;;;;;;;4960633;28;20456;-65
2023/03/07 07:48:13;;;;;;;9.50;4.30;;;;;;;;;;4947864;28;20448;-65
2023/03/07 07:50:40;;;;;;;4.33;2.40;;;;;;;;;;4959053;28;20468;-64
2023/03/07 07:53:07;;;;;;;11.97;5.03;;;;;;;;;;4958356;28;20461;-65
2023/03/07 07:55:34;;;;;;;11.17;4.67;;;;;;;;;;4960908;28;20447;-65
2023/03/07 07:58:01;;;;;;;7.67;3.40;;;;;;;;;;4956614;28;20957;-65
2023/03/07 08:00:47;;;;;;;6.43;2.93;;;;;;;;;;4946936;28;20464;-65
2023/03/07 08:03:14;;;;;;;8.13;4.10;;;;;;;;;;4931015;28;20470;-66
2023/03/07 08:05:44;;;;;;;11.40;4.50;;;;;;;;;;4944496;28;20464;-65
2023/03/07 08:08:11;;;;;;;9.17;4.47;;;;;;;;;;4943099;28;20518;-65
2023/03/07 08:10:41;;;;;;;11.00;4.43;;;;;;;;;;4959052;28;20943;-65
2023/03/07 08:13:12;;;;;;;12.40;4.70;;;;;;;;;;4955329;28;20523;-65
2023/03/07 08:15:39;;;;;;;9.03;4.60;;;;;;;;;;4946182;28;20464;-66
2023/03/07 08:18:06;;;;;;;8.30;4.07;;;;;;;;;;4968338;28;21049;-65
2023/03/07 08:20:34;;;;;;;8.07;3.40;;;;;;;;;;4972590;28;20514;-65
2023/03/07 08:23:01;;;;;;;9.33;4.97;;;;;;;;;;4956202;28;20468;-69
2023/03/07 08:25:27;;;;;;;9.07;3.60;;;;;;;;;;4935062;28;20983;-66
2023/03/07 08:27:54;;;;;;;9.93;4.63;;;;;;;;;;4957168;28;20474;-67
2023/03/07 08:30:21;;;;;;;9.33;3.73;;;;;;;;;;4946552;28;20815;-67
2023/03/07 08:32:49;;;;;;;6.83;3.40;;;;;;;;;;4916483;28;20566;-68
2023/03/07 08:35:16;;;;;;;11.63;5.27;;;;;;;;;;4918485;28;20557;-70
2023/03/07 08:37:43;;;;;;;11.50;5.47;;;;;;;;;;4961349;28;20456;-74
2023/03/07 08:40:10;;;;;;;12.57;4.57;;;;;;;;;;4961958;28;21011;-69
2023/03/07 08:42:39;;;;;;;10.77;5.90;;;;;;;;;;4962658;28;20463;-71
2023/03/07 08:45:07;;;;;;;12.67;6.73;;;;;;;;;;4912212;28;216321;-71
2023/03/07 08:47:34;;;;;;;20.20;7.83;;;;;;;;;;4961789;28;20475;-70
2023/03/07 08:50:18;;;;;;;20.00;8.80;;;;;;;;;;4961596;28;20456;-67
2023/03/07 08:52:45;;;;;;;19.87;8.63;;;;;;;;;;4962552;28;20534;-68
2023/03/07 08:55:33;;;;;;;12.73;5.67;;;;;;;;;;4962766;28;20448;-68
2023/03/07 08:58:00;;;;;;;24.37;11.20;;;;;;;;;;4961129;28;20464;-66
2023/03/07 09:00:27;;;;;;;21.37;9.73;;;;;;;;;;4962381;28;20546;-67
2023/03/07 09:02:57;;;;;;;17.37;8.87;;;;;;;;;;4960439;28;21215;-66
2023/03/07 09:05:23;;;;;;;13.77;7.70;;;;;;;;;;4960141;28;20793;-68
2023/03/07 09:07:50;;;;;;;15.93;7.70;;;;;;;;;;4961577;28;20494;-67
2023/03/07 09:10:19;;;;;;;20.10;9.47;;;;;;;;;;4960122;28;20459;-67
2023/03/07 09:12:47;;;;;;;21.40;9.07;;;;;;;;;;4946240;28;20475;-66
2023/03/07 09:15:31;;;;;;;21.67;10.73;;;;;;;;;;4961173;28;20451;-67
2023/03/07 09:17:58;;;;;;;20.77;9.20;;;;;;;;;;4948431;28;20469;-66
2023/03/07 09:20:25;;;;;;;27.03;13.23;;;;;;;;;;4961865;28;20530;-66
2023/03/07 09:22:53;;;;;;;20.23;10.17;;;;;;;;;;4962533;28;20455;-66
2023/03/07 09:25:21;;;;;;;22.63;11.33;;;;;;;;;;4950453;28;20498;-67
2023/03/07 09:27:48;;;;;;;18.53;8.37;;;;;;;;;;4946807;28;21315;-66
2023/03/07 09:30:17;;;;;;;25.47;12.73;;;;;;;;;;4930856;28;20491;-65
2023/03/07 09:32:45;;;;;;;26.10;13.23;;;;;;;;;;4970325;28;20915;-68
2023/03/07 09:35:11;;;;;;;22.73;10.97;;;;;;;;;;4981957;28;20459;-66
2023/03/07 09:37:39;;;;;;;25.33;12.50;;;;;;;;;;4980436;28;21014;-65
2023/03/07 09:40:06;;;;;;;29.53;15.40;;;;;;;;;;4979869;28;20470;-67
2023/03/07 09:42:36;;;;;;;31.07;14.43;;;;;;;;;;4982534;28;20937;-67
2023/03/07 09:45:23;;;;;;;25.27;12.60;;;;;;;;;;4947298;28;20472;-66
2023/03/07 09:47:56;;;;;;;19.57;10.10;;;;;;;;;;4959920;28;20456;-66
2023/03/07 09:50:27;;;;;;;31.97;14.70;;;;;;;;;;4974865;28;20466;-67
2023/03/07 09:52:54;;;;;;;19.43;9.17;;;;;;;;;;4959916;28;20456;-66
2023/03/07 09:55:20;;;;;;;32.87;15.53;;;;;;;;;;4959307;28;20463;-66
2023/03/07 09:57:50;;;;;;;37.10;13.63;;;;;;;;;;4959937;28;20538;-65
2023/03/07 10:00:28;;;;;;;28.73;14.57;;;;;;;;;;4959890;28;32753;-65
2023/03/07 10:03:01;;;;;;;23.60;10.60;;;;;;;;;;4960522;28;20455;-67
2023/03/07 10:05:49;;;;;;;21.07;9.30;;;;;;;;;;4952765;28;221840;-67
2023/03/07 10:08:16;;;;;;;28.70;11.13;;;;;;;;;;4967985;28;20490;-66
2023/03/07 10:10:53;;;;;;;42.17;20.60;;;;;;;;;;4942385;28;20471;-67
2023/03/07 10:13:29;;;;;;;31.73;15.87;;;;;;;;;;4959228;28;20499;-65
2023/03/07 10:15:56;;;;;;;35.50;16.70;;;;;;;;;;4960344;28;20460;-65
2023/03/07 10:18:35;;;;;;;33.60;14.57;;;;;;;;;;4961532;28;21061;-66
2023/03/07 10:21:12;;;;;;;39.67;18.53;;;;;;;;;;4953591;28;21033;-65
2023/03/07 10:23:54;;;;;;;25.27;10.37;;;;;;;;;;4957811;28;20552;-65
2023/03/07 10:26:21;;;;;;;16.73;7.80;;;;;;;;;;4932601;28;20468;-64
2023/03/07 10:28:47;;;;;;;37.70;17.63;;;;;;;;;;4964372;28;20987;-65
2023/03/07 10:31:14;;;;;;;33.80;15.97;;;;;;;;;;4961415;28;20859;-65
2023/03/07 10:33:42;;;;;;;36.87;17.77;;;;;;;;;;4964900;28;20977;-65
2023/03/07 10:36:19;;;;;;;29.77;13.73;;;;;;;;;;4961053;28;20543;-67
2023/03/07 10:39:04;;;;;;;38.47;17.93;;;;;;;;;;4944035;28;20470;-65
2023/03/07 10:41:31;;;;;;;27.93;10.33;;;;;;;;;;4960891;28;20840;-66
2023/03/07 10:44:17;;;;;;;31.30;14.33;;;;;;;;;;4958879;28;21012;-65
2023/03/07 10:46:43;;;;;;;30.90;15.40;;;;;;;;;;4949938;28;20480;-64
2023/03/07 10:49:28;;;;;;;30.20;12.70;;;;;;;;;;4955613;28;20460;-65
2023/03/07 10:51:55;;;;;;;38.83;17.63;;;;;;;;;;4974073;28;20974;-64
2023/03/07 10:54:28;;;;;;;31.27;13.80;;;;;;;;;;4974877;28;20468;-65
2023/03/07 10:57:16;;;;;;;40.17;17.73;;;;;;;;;;4974784;28;20463;-64
2023/03/07 11:00:00;;;;;;;30.40;14.77;;;;;;;;;;4974250;28;20490;-65
2023/03/07 11:02:45;;;;;;;39.40;17.60;;;;;;;;;;4960775;28;20451;-65
2023/03/07 11:05:18;;;;;;;27.00;12.27;;;;;;;;;;4972107;28;216530;-68
2023/03/07 11:07:44;;;;;;;38.50;17.93;;;;;;;;;;4968525;28;230754;-68
2023/03/07 11:10:44;;;;;;;26.77;13.17;;;;;;;;;;4931659;28;20467;-68
2023/03/07 11:13:18;;;;;;;20.17;9.23;;;;;;;;;;4867893;28;21198;-66
2023/03/07 11:15:45;;;;;;;35.87;17.60;;;;;;;;;;4957212;28;20562;-66
2023/03/07 11:18:29;;;;;;;20.03;8.27;;;;;;;;;;4932593;28;20514;-69
2023/03/07 11:20:56;;;;;;;33.20;16.00;;;;;;;;;;4960999;28;20823;-67
2023/03/07 11:23:24;;;;;;;24.57;11.77;;;;;;;;;;4957511;28;21092;-68
2023/03/07 11:25:51;;;;;;;27.50;11.90;;;;;;;;;;4949469;28;20815;-68
2023/03/07 11:28:23;;;;;;;23.43;12.97;;;;;;;;;;4945078;28;20500;-66
2023/03/07 11:31:08;;;;;;;22.83;11.60;;;;;;;;;;4958586;28;21030;-67
2023/03/07 11:33:42;;;;;;;20.87;8.07;;;;;;;;;;4945943;28;20456;-66
2023/03/07 11:36:30;;;;;;;27.10;13.90;;;;;;;;;;4961093;28;20459;-67
2023/03/07 11:39:17;;;;;;;22.17;9.80;;;;;;;;;;4946136;28;20546;-66
2023/03/07 11:41:52;;;;;;;16.47;8.77;;;;;;;;;;4961119;28;20469;-67
2023/03/07 11:44:19;;;;;;;19.90;7.93;;;;;;;;;;4941817;28;20459;-69
2023/03/07 11:47:04;;;;;;;22.53;9.10;;;;;;;;;;4960675;28;20987;-67
2023/03/07 11:49:38;;;;;;;32.10;15.90;;;;;;;;;;4944374;28;20482;-70
2023/03/07 11:52:13;;;;;;;30.87;14.43;;;;;;;;;;4884316;28;20479;-69
2023/03/07 11:54:45;;;;;;;25.33;9.97;;;;;;;;;;4927113;28;21154;-68
2023/03/07 11:57:18;;;;;;;22.47;11.60;;;;;;;;;;4946630;28;20452;-71
2023/03/07 11:59:57;;;;;;;19.50;7.20;;;;;;;;;;4939513;28;20844;-65
2023/03/07 12:02:30;;;;;;;22.53;9.80;;;;;;;;;;4946415;28;20832;-67
2023/03/07 12:05:00;;;;;;;27.43;13.27;;;;;;;;;;4928808;28;20558;-66
2023/03/07 12:07:45;;;;;;;31.63;15.47;;;;;;;;;;4947715;28;20468;-64
2023/03/07 12:10:40;;;;;;;28.43;14.20;;;;;;;;;;4962159;28;20478;-64
2023/03/07 12:13:09;;;;;;;24.10;12.13;;;;;;;;;;4963306;28;20511;-63
2023/03/07 12:15:39;;;;;;;24.90;10.60;;;;;;;;;;4948234;28;20829;-63
2023/03/07 12:18:21;;;;;;;29.83;14.20;;;;;;;;;;4983230;28;20546;-65
2023/03/07 12:21:05;;;;;;;26.63;13.27;;;;;;;;;;4972629;28;20466;-65
2023/03/07 12:23:37;;;;;;;34.23;18.03;;;;;;;;;;4983808;28;20478;-64
2023/03/07 12:26:15;;;;;;;30.90;12.70;;;;;;;;;;4949261;28;20466;-65
2023/03/07 12:28:53;;;;;;;20.83;9.60;;;;;;;;;;4947434;28;20861;-64
2023/03/07 12:31:42;;;;;;;30.57;14.27;;;;;;;;;;4965878;28;20455;-64
2023/03/07 12:34:09;;;;;;;28.23;13.57;;;;;;;;;;4964498;28;20533;-64
2023/03/07 12:36:36;;;;;;;22.27;10.03;;;;;;;;;;4968297;28;20259;-64
2023/03/07 12:39:06;;;;;;;29.43;13.17;;;;;;;;;;4973740;28;20484;-63
2023/03/07 12:41:42;;;;;;;17.37;8.33;;;;;;;;;;4965182;28;20552;-64
2023/03/07 12:44:12;;;;;;;19.47;9.33;;;;;;;;;;4949694;28;20573;-65
2023/03/07 12:46:40;;;;;;;22.27;11.60;;;;;;;;;;4978641;28;20451;-65
2023/03/07 12:49:15;;;;;;;21.90;11.83;;;;;;;;;;4965154;28;20474;-64
2023/03/07 12:51:45;;;;;;;33.13;16.80;;;;;;;;;;4953574;28;20462;-66
2023/03/07 12:54:13;;;;;;;13.90;6.87;;;;;;;;;;4967394;28;20465;-64
2023/03/07 12:56:52;;;;;;;16.10;8.50;;;;;;;;;;4955796;28;20543;-62
2023/03/07 12:59:22;;;;;;;19.57;8.37;;;;;;;;;;4977382;28;20453;-64
2023/03/07 13:01:54;;;;;;;13.90;6.83;;;;;;;;;;4970111;28;20464;-65
2023/03/07 13:04:39;;;;;;;12.37;6.03;;;;;;;;;;4957163;28;20547;-63
2023/03/07 13:07:15;;;;;;;18.17;9.20;;;;;;;;;;4944776;28;20472;-64
2023/03/07 13:09:42;;;;;;;22.17;11.17;;;;;;;;;;4955783;28;20526;-62
2023/03/07 13:12:09;;;;;;;22.87;11.70;;;;;;;;;;4960847;28;21098;-63
2023/03/07 13:14:39;;;;;;;13.20;6.87;;;;;;;;;;4958123;28;20460;-63
2023/03/07 13:17:09;;;;;;;14.43;6.20;;;;;;;;;;4958098;28;20466;-63
2023/03/07 13:19:36;;;;;;;12.70;6.17;;;;;;;;;;4968027;28;20485;-64
2023/03/07 13:22:15;;;;;;;16.63;8.10;;;;;;;;;;4945377;28;20818;-64
2023/03/07 13:25:20;;;;;;;12.53;6.47;;;;;;;;;;4957797;28;20456;-64
2023/03/07 13:27:52;;;;;;;19.70;11.10;;;;;;;;;;4950183;28;20468;-65
2023/03/07 13:30:20;;;;;;;19.03;11.17;;;;;;;;;;4959347;28;20460;-64
2023/03/07 13:32:47;;;;;;;12.70;6.20;;;;;;;;;;4966828;28;20467;-63
2023/03/07 13:35:34;;;;;;;17.70;7.47;;;;;;;;;;4966145;28;20467;-63
2023/03/07 13:38:03;;;;;;;12.20;7.43;;;;;;;;;;4952182;28;20537;-62
2023/03/07 13:40:33;;;;;;;14.80;5.60;;;;;;;;;;4955072;28;20471;-64
2023/03/07 13:43:00;;;;;;;11.50;5.70;;;;;;;;;;4963781;28;20295;-63
2023/03/07 13:45:46;;;;;;;13.53;5.60;;;;;;;;;;4958221;28;20545;-63
2023/03/07 13:48:19;;;;;;;12.43;6.33;;;;;;;;;;4961939;28;20232;-65
2023/03/07 13:50:46;;;;;;;11.87;6.97;;;;;;;;;;4966904;28;20474;-64
2023/03/07 13:53:14;;;;;;;12.20;6.47;;;;;;;;;;4956512;28;20474;-64
2023/03/07 13:55:49;;;;;;;15.17;6.83;;;;;;;;;;4946258;28;20481;-64
2023/03/07 13:58:32;;;;;;;9.70;5.30;;;;;;;;;;4956443;28;20463;-63
2023/03/07 14:01:03;;;;;;;17.60;8.90;;;;;;;;;;4960502;28;20540;-64
2023/03/07 14:03:31;;;;;;;4.70;3.23;;;;;;;;;;4971717;28;20497;-63
2023/03/07 14:05:59;;;;;;;14.43;6.23;;;;;;;;;;4958556;28;20472;-62
2023/03/07 14:08:27;;;;;;;12.63;5.70;;;;;;;;;;4961539;28;20819;-64
2023/03/07 14:10:54;;;;;;;7.57;5.00;;;;;;;;;;4977872;28;20447;-63
2023/03/07 14:13:36;;;;;;;15.47;5.97;;;;;;;;;;4967491;28;21101;-63
2023/03/07 14:16:03;;;;;;;11.37;6.90;;;;;;;;;;4961990;28;20948;-63
2023/03/07 14:18:42;;;;;;;5.73;3.47;;;;;;;;;;4962154;28;20957;-63
2023/03/07 14:21:15;;;;;;;10.10;5.37;;;;;;;;;;4950220;28;21036;-63
2023/03/07 14:23:56;;;;;;;14.90;8.40;;;;;;;;;;4955051;28;20470;-63
2023/03/07 14:26:42;;;;;;;9.93;6.10;;;;;;;;;;4948410;28;20869;-63
2023/03/07 14:29:16;;;;;;;10.40;5.00;;;;;;;;;;4964697;28;20460;-63
2023/03/07 14:31:43;;;;;;;9.83;4.93;;;;;;;;;;4963250;28;20458;-64
2023/03/07 14:34:28;;;;;;;13.47;7.13;;;;;;;;;;4965601;28;20831;-64
2023/03/07 14:37:17;;;;;;;8.20;5.73;;;;;;;;;;4961114;28;20757;-64
2023/03/07 14:39:50;;;;;;;15.30;7.97;;;;;;;;;;4963937;28;20583;-64
2023/03/07 14:42:20;;;;;;;11.63;6.40;;;;;;;;;;4963772;28;20464;-64
2023/03/07 14:44:50;;;;;;;10.80;5.33;;;;;;;;;;4963693;28;20467;-64
2023/03/07 14:47:26;;;;;;;14.90;7.63;;;;;;;;;;4963974;28;20464;-64
2023/03/07 14:49:59;;;;;;;9.57;5.03;;;;;;;;;;4963998;28;20833;-64
2023/03/07 14:52:26;;;;;;;14.70;8.07;;;;;;;;;;4963616;28;20603;-64
2023/03/07 14:55:00;;;;;;;14.10;6.07;;;;;;;;;;4961878;28;20470;-64
2023/03/07 14:57:30;;;;;;;12.87;6.77;;;;;;;;;;4961844;28;20467;-64
2023/03/07 15:00:11;;;;;;;14.17;7.30;;;;;;;;;;4963530;28;20236;-64
2023/03/07 15:02:44;;;;;;;10.30;6.23;;;;;;;;;;4963224;28;20450;-64
2023/03/07 15:05:17;;;;;;;14.53;8.27;;;;;;;;;;4963044;28;20469;-64
2023/03/07 15:07:44;;;;;;;11.87;6.33;;;;;;;;;;4963111;28;20487;-64
2023/03/07 15:10:17;;;;;;;13.00;6.83;;;;;;;;;;4963430;28;20467;-64
2023/03/07 15:12:44;;;;;;;11.40;5.60;;;;;;;;;;4963481;28;20965;-64
2023/03/07 15:15:23;;;;;;;11.33;5.37;;;;;;;;;;4950566;28;20464;-64
2023/03/07 15:18:13;;;;;;;10.87;6.63;;;;;;;;;;4962457;28;20455;-64
2023/03/07 15:20:40;;;;;;;8.63;4.30;;;;;;;;;;4961747;28;21018;-64
2023/03/07 15:23:07;;;;;;;10.50;5.23;;;;;;;;;;4963124;28;21212;-63
2023/03/07 15:25:37;;;;;;;11.13;5.93;;;;;;;;;;4967989;28;20589;-64
2023/03/07 15:28:05;;;;;;;7.63;3.67;;;;;;;;;;4959325;28;20535;-64